sensor_id;sensor_type;location;lat;lon;timestamp;pressure;altitude;pressure_sealevel;temperature;humidity
48792;BME280;34587;48.816;9.420;2023-07-29T04:17:39;98287.97;;;16.29;100.00
48792;BME280;34587;48.816;9.420;2023-07-29T04:20:04;98277.81;;;16.23;100.00
48792;BME280;34587;48.816;9.420;2023-07-29T04:22:30;98284.44;;;16.12;100.00
48792;BME280;34587;48.816;9.420;2023-07-29T04:24:55;98281.31;;;16.04;100.00
48792;BME280;34587;48.816;9.420;2023-07-29T04:27:20;98280.03;;;16.13;100.00
48792;BME280;34587;48.816;9.420;2023-07-29T04:29:46;98282.88;;;16.08;100.00
48792;BME280;34587;48.816;9.420;2023-07-29T04:32:11;98276.44;;;16.15;100.00
48792;BME280;34587;48.816;9.420;2023-07-29T04:34:36;98278.31;;;16.31;100.00
48792;BME280;34587;48.816;9.420;2023-07-29T04:37:01;98289.91;;;16.25;100.00
48792;BME280;34587;48.816;9.420;2023-07-29T04:39:27;98284.91;;;16.38;100.00
48792;BME280;34587;48.816;9.420;2023-07-29T04:41:52;98275.69;;;16.48;100.00
48792;BME280;34587;48.816;9.420;2023-07-29T04:44:17;98287.31;;;16.42;100.00
48792;BME280;34587;48.816;9.420;2023-07-29T04:46:42;98285.66;;;16.23;100.00
48792;BME280;34587;48.816;9.420;2023-07-29T04:49:08;98289.38;;;16.36;100.00
48792;BME280;34587;48.816;9.420;2023-07-29T04:51:33;98290.31;;;16.35;100.00
48792;BME280;34587;48.816;9.420;2023-07-29T04:53:58;98300.91;;;16.32;100.00
48792;BME280;34587;48.816;9.420;2023-07-29T04:56:24;98304.66;;;16.26;100.00
48792;BME280;34587;48.816;9.420;2023-07-29T04:58:50;98303.03;;;16.24;100.00
48792;BME280;34587;48.816;9.420;2023-07-29T05:01:15;98312.44;;;16.28;100.00
48792;BME280;34587;48.816;9.420;2023-07-29T05:03:40;98330.91;;;16.25;100.00
48792;BME280;34587;48.816;9.420;2023-07-29T05:06:06;98330.09;;;16.23;100.00
48792;BME280;34587;48.816;9.420;2023-07-29T05:08:31;98331.16;;;16.18;100.00
48792;BME280;34587;48.816;9.420;2023-07-29T05:10:56;98327.50;;;16.23;100.00
48792;BME280;34587;48.816;9.420;2023-07-29T05:13:22;98327.63;;;16.19;100.00
48792;BME280;34587;48.816;9.420;2023-07-29T05:15:48;98325.00;;;16.19;100.00
48792;BME280;34587;48.816;9.420;2023-07-29T05:18:14;98330.31;;;16.18;100.00
48792;BME280;34587;48.816;9.420;2023-07-29T05:20:40;98324.75;;;16.26;100.00
48792;BME280;34587;48.816;9.420;2023-07-29T05:23:05;98318.84;;;16.39;100.00
48792;BME280;34587;48.816;9.420;2023-07-29T05:25:31;98316.91;;;16.43;100.00
48792;BME280;34587;48.816;9.420;2023-07-29T05:27:56;98311.84;;;16.57;100.00
48792;BME280;34587;48.816;9.420;2023-07-29T05:30:22;98297.69;;;16.61;100.00
48792;BME280;34587;48.816;9.420;2023-07-29T05:32:47;98300.91;;;16.66;100.00
48792;BME280;34587;48.816;9.420;2023-07-29T05:35:13;98297.38;;;16.67;100.00
48792;BME280;34587;48.816;9.420;2023-07-29T05:37:39;98297.97;;;16.74;100.00
48792;BME280;34587;48.816;9.420;2023-07-29T05:40:05;98293.88;;;16.68;100.00
48792;BME280;34587;48.816;9.420;2023-07-29T05:42:32;98305.94;;;16.71;100.00
48792;BME280;34587;48.816;9.420;2023-07-29T05:44:57;98306.47;;;16.60;100.00
48792;BME280;34587;48.816;9.420;2023-07-29T05:47:22;98313.84;;;16.52;100.00
48792;BME280;34587;48.816;9.420;2023-07-29T05:49:48;98307.31;;;16.61;100.00
48792;BME280;34587;48.816;9.420;2023-07-29T05:52:13;98304.94;;;16.56;100.00
48792;BME280;34587;48.816;9.420;2023-07-29T05:54:38;98299.69;;;16.56;100.00
48792;BME280;34587;48.816;9.420;2023-07-29T05:57:04;98289.31;;;16.72;100.00
48792;BME280;34587;48.816;9.420;2023-07-29T05:59:29;98292.78;;;16.90;100.00
48792;BME280;34587;48.816;9.420;2023-07-29T06:01:55;98294.31;;;16.94;100.00
48792;BME280;34587;48.816;9.420;2023-07-29T06:04:20;98295.38;;;17.07;100.00
48792;BME280;34587;48.816;9.420;2023-07-29T06:06:45;98292.72;;;17.25;100.00
48792;BME280;34587;48.816;9.420;2023-07-29T06:09:10;98284.97;;;17.55;100.00
48792;BME280;34587;48.816;9.420;2023-07-29T06:11:36;98270.97;;;17.71;100.00
48792;BME280;34587;48.816;9.420;2023-07-29T06:14:01;98263.91;;;17.73;100.00
48792;BME280;34587;48.816;9.420;2023-07-29T06:16:26;98261.69;;;18.13;100.00
48792;BME280;34587;48.816;9.420;2023-07-29T06:18:52;98262.31;;;18.63;100.00
48792;BME280;34587;48.816;9.420;2023-07-29T06:21:18;98262.09;;;18.96;100.00
48792;BME280;34587;48.816;9.420;2023-07-29T06:23:45;98259.66;;;19.36;100.00
48792;BME280;34587;48.816;9.420;2023-07-29T06:26:10;98257.31;;;19.31;100.00
48792;BME280;34587;48.816;9.420;2023-07-29T06:28:35;98253.97;;;19.15;100.00
48792;BME280;34587;48.816;9.420;2023-07-29T06:31:01;98256.66;;;19.27;100.00
48792;BME280;34587;48.816;9.420;2023-07-29T06:33:26;98258.13;;;19.74;100.00
48792;BME280;34587;48.816;9.420;2023-07-29T06:35:51;98255.59;;;19.73;100.00
48792;BME280;34587;48.816;9.420;2023-07-29T06:38:17;98245.03;;;19.60;100.00
48792;BME280;34587;48.816;9.420;2023-07-29T06:40:46;98242.78;;;19.25;100.00
48792;BME280;34587;48.816;9.420;2023-07-29T06:43:12;98249.81;;;19.39;100.00
48792;BME280;34587;48.816;9.420;2023-07-29T06:45:37;98254.81;;;19.85;100.00
48792;BME280;34587;48.816;9.420;2023-07-29T06:48:02;98254.53;;;19.90;100.00
48792;BME280;34587;48.816;9.420;2023-07-29T06:50:28;98240.78;;;20.26;100.00
48792;BME280;34587;48.816;9.420;2023-07-29T06:52:53;98251.06;;;20.29;100.00
48792;BME280;34587;48.816;9.420;2023-07-29T06:55:18;98251.25;;;20.13;100.00
48792;BME280;34587;48.816;9.420;2023-07-29T06:57:44;98248.47;;;20.02;100.00
48792;BME280;34587;48.816;9.420;2023-07-29T07:00:09;98257.03;;;19.50;100.00
48792;BME280;34587;48.816;9.420;2023-07-29T07:02:35;98266.22;;;19.14;100.00
48792;BME280;34587;48.816;9.420;2023-07-29T07:05:00;98260.22;;;18.98;100.00
48792;BME280;34587;48.816;9.420;2023-07-29T07:07:25;98267.91;;;18.87;100.00
48792;BME280;34587;48.816;9.420;2023-07-29T07:09:50;98282.69;;;18.73;100.00
48792;BME280;34587;48.816;9.420;2023-07-29T07:12:16;98288.44;;;18.64;100.00
48792;BME280;34587;48.816;9.420;2023-07-29T07:14:41;98292.19;;;18.60;100.00
48792;BME280;34587;48.816;9.420;2023-07-29T07:17:06;98304.25;;;18.48;100.00
48792;BME280;34587;48.816;9.420;2023-07-29T07:19:32;98322.81;;;18.30;100.00
48792;BME280;34587;48.816;9.420;2023-07-29T07:21:57;98324.25;;;18.19;100.00
48792;BME280;34587;48.816;9.420;2023-07-29T07:24:22;98333.31;;;18.14;100.00
48792;BME280;34587;48.816;9.420;2023-07-29T07:26:47;98342.88;;;18.15;100.00
48792;BME280;34587;48.816;9.420;2023-07-29T07:29:13;98328.50;;;18.06;100.00
48792;BME280;34587;48.816;9.420;2023-07-29T07:31:39;98324.25;;;18.19;100.00
48792;BME280;34587;48.816;9.420;2023-07-29T07:34:04;98326.31;;;18.14;100.00
48792;BME280;34587;48.816;9.420;2023-07-29T07:36:29;98333.41;;;18.12;100.00
48792;BME280;34587;48.816;9.420;2023-07-29T07:38:55;98321.81;;;18.16;100.00
48792;BME280;34587;48.816;9.420;2023-07-29T07:41:21;98320.47;;;18.09;100.00
48792;BME280;34587;48.816;9.420;2023-07-29T07:43:46;98320.72;;;18.20;100.00
48792;BME280;34587;48.816;9.420;2023-07-29T07:46:11;98329.50;;;18.19;100.00
48792;BME280;34587;48.816;9.420;2023-07-29T07:48:37;98328.22;;;18.27;100.00
48792;BME280;34587;48.816;9.420;2023-07-29T07:51:12;98324.72;;;18.42;100.00
48792;BME280;34587;48.816;9.420;2023-07-29T07:53:37;98322.22;;;18.70;100.00
48792;BME280;34587;48.816;9.420;2023-07-29T07:56:03;98331.66;;;18.89;100.00
48792;BME280;34587;48.816;9.420;2023-07-29T07:58:28;98322.41;;;18.97;100.00
48792;BME280;34587;48.816;9.420;2023-07-29T08:01:03;98318.19;;;19.23;100.00
48792;BME280;34587;48.816;9.420;2023-07-29T08:03:29;98321.94;;;19.19;100.00
48792;BME280;34587;48.816;9.420;2023-07-29T08:05:55;98315.53;;;18.95;100.00
48792;BME280;34587;48.816;9.420;2023-07-29T08:08:20;98319.88;;;18.96;100.00
48792;BME280;34587;48.816;9.420;2023-07-29T08:10:45;98317.69;;;18.88;100.00
48792;BME280;34587;48.816;9.420;2023-07-29T08:13:10;98305.59;;;19.00;100.00
48792;BME280;34587;48.816;9.420;2023-07-29T08:15:36;98304.31;;;19.21;100.00
48792;BME280;34587;48.816;9.420;2023-07-29T08:18:01;98295.03;;;19.30;100.00
48792;BME280;34587;48.816;9.420;2023-07-29T08:20:26;98305.56;;;19.44;100.00
48792;BME280;34587;48.816;9.420;2023-07-29T08:22:51;98313.88;;;19.37;100.00
48792;BME280;34587;48.816;9.420;2023-07-29T08:25:17;98323.66;;;19.20;100.00
48792;BME280;34587;48.816;9.420;2023-07-29T08:27:42;98324.22;;;19.40;100.00
48792;BME280;34587;48.816;9.420;2023-07-29T08:30:08;98326.25;;;19.92;100.00
48792;BME280;34587;48.816;9.420;2023-07-29T08:32:33;98317.34;;;20.75;100.00
48792;BME280;34587;48.816;9.420;2023-07-29T08:34:59;98329.53;;;20.64;100.00
48792;BME280;34587;48.816;9.420;2023-07-29T08:37:24;98313.16;;;20.86;100.00
48792;BME280;34587;48.816;9.420;2023-07-29T08:39:49;98313.78;;;21.66;100.00
48792;BME280;34587;48.816;9.420;2023-07-29T08:42:16;98318.94;;;22.41;100.00
48792;BME280;34587;48.816;9.420;2023-07-29T08:44:44;98311.34;;;22.60;93.98
48792;BME280;34587;48.816;9.420;2023-07-29T08:47:11;98311.97;;;22.99;94.28
48792;BME280;34587;48.816;9.420;2023-07-29T08:49:38;98300.47;;;23.33;91.68
48792;BME280;34587;48.816;9.420;2023-07-29T08:52:04;98297.38;;;24.28;84.59
48792;BME280;34587;48.816;9.420;2023-07-29T08:54:30;98298.16;;;24.51;81.12
48792;BME280;34587;48.816;9.420;2023-07-29T08:56:55;98304.25;;;24.83;82.46
48792;BME280;34587;48.816;9.420;2023-07-29T08:59:21;98293.78;;;25.03;76.08
48792;BME280;34587;48.816;9.420;2023-07-29T09:01:47;98295.41;;;25.36;77.45
48792;BME280;34587;48.816;9.420;2023-07-29T09:04:12;98298.56;;;24.67;79.57
48792;BME280;34587;48.816;9.420;2023-07-29T09:06:39;98308.63;;;24.09;84.19
48792;BME280;34587;48.816;9.420;2023-07-29T09:09:04;98308.66;;;23.87;85.81
48792;BME280;34587;48.816;9.420;2023-07-29T09:11:30;98311.06;;;23.33;83.77
48792;BME280;34587;48.816;9.420;2023-07-29T09:13:56;98296.38;;;24.72;78.17
48792;BME280;34587;48.816;9.420;2023-07-29T09:16:22;98287.25;;;27.89;67.88
48792;BME280;34587;48.816;9.420;2023-07-29T09:18:48;98289.19;;;29.99;56.25
48792;BME280;34587;48.816;9.420;2023-07-29T09:21:18;98287.59;;;30.14;55.77
48792;BME280;34587;48.816;9.420;2023-07-29T09:23:47;98273.78;;;28.72;61.03
48792;BME280;34587;48.816;9.420;2023-07-29T09:26:13;98277.28;;;28.19;60.07
48792;BME280;34587;48.816;9.420;2023-07-29T09:28:39;98273.22;;;27.32;63.29
48792;BME280;34587;48.816;9.420;2023-07-29T09:31:04;98278.44;;;27.24;64.79
48792;BME280;34587;48.816;9.420;2023-07-29T09:33:33;98283.63;;;26.00;68.26
48792;BME280;34587;48.816;9.420;2023-07-29T09:36:03;98276.94;;;24.83;75.22
48792;BME280;34587;48.816;9.420;2023-07-29T09:38:28;98280.47;;;24.72;75.51
48792;BME280;34587;48.816;9.420;2023-07-29T09:40:56;98273.88;;;26.68;68.43
48792;BME280;34587;48.816;9.420;2023-07-29T09:43:32;98282.94;;;28.52;59.24
48792;BME280;34587;48.816;9.420;2023-07-29T09:46:01;98276.69;;;27.70;62.04
48792;BME280;34587;48.816;9.420;2023-07-29T09:48:27;98267.72;;;26.19;67.30
48792;BME280;34587;48.816;9.420;2023-07-29T09:50:54;98270.78;;;28.22;60.56
48792;BME280;34587;48.816;9.420;2023-07-29T09:53:20;98271.22;;;27.81;62.87
48792;BME280;34587;48.816;9.420;2023-07-29T09:55:47;98267.84;;;27.79;61.99
48792;BME280;34587;48.816;9.420;2023-07-29T09:58:13;98272.38;;;29.04;59.64
48792;BME280;34587;48.816;9.420;2023-07-29T10:00:39;98265.22;;;27.97;60.45
48792;BME280;34587;48.816;9.420;2023-07-29T10:03:05;98253.63;;;27.33;65.74
48792;BME280;34587;48.816;9.420;2023-07-29T10:05:32;98243.97;;;26.37;64.99
48792;BME280;34587;48.816;9.420;2023-07-29T10:08:00;98233.22;;;27.79;62.84
48792;BME280;34587;48.816;9.420;2023-07-29T10:10:25;98229.69;;;29.80;56.33
48792;BME280;34587;48.816;9.420;2023-07-29T10:12:53;98236.09;;;28.49;57.86
48792;BME280;34587;48.816;9.420;2023-07-29T10:15:20;98237.34;;;29.67;53.76
48792;BME280;34587;48.816;9.420;2023-07-29T10:17:46;98246.34;;;30.41;52.01
48792;BME280;34587;48.816;9.420;2023-07-29T10:20:11;98250.22;;;30.46;50.66
48792;BME280;34587;48.816;9.420;2023-07-29T10:22:42;98245.91;;;32.43;47.47
48792;BME280;34587;48.816;9.420;2023-07-29T10:25:14;98256.13;;;32.17;46.72
48792;BME280;34587;48.816;9.420;2023-07-29T10:27:48;98248.97;;;32.32;47.93
48792;BME280;34587;48.816;9.420;2023-07-29T10:30:14;98253.88;;;30.94;48.49
48792;BME280;34587;48.816;9.420;2023-07-29T10:32:43;98241.03;;;29.82;51.91
48792;BME280;34587;48.816;9.420;2023-07-29T10:35:13;98261.31;;;26.70;61.91
48792;BME280;34587;48.816;9.420;2023-07-29T10:37:39;98268.16;;;23.75;74.69
48792;BME280;34587;48.816;9.420;2023-07-29T10:40:10;98260.22;;;24.18;78.38
48792;BME280;34587;48.816;9.420;2023-07-29T10:42:59;98274.84;;;22.54;84.31
48792;BME280;34587;48.816;9.420;2023-07-29T10:45:26;98272.22;;;21.69;93.56
48792;BME280;34587;48.816;9.420;2023-07-29T10:47:51;98287.66;;;22.23;94.54
48792;BME280;34587;48.816;9.420;2023-07-29T10:50:21;98291.88;;;21.40;96.28
48792;BME280;34587;48.816;9.420;2023-07-29T10:52:51;98292.03;;;20.73;100.00
48792;BME280;34587;48.816;9.420;2023-07-29T10:55:33;98295.66;;;20.97;100.00
48792;BME280;34587;48.816;9.420;2023-07-29T10:58:15;98304.09;;;21.15;100.00
48792;BME280;34587;48.816;9.420;2023-07-29T11:00:43;98288.78;;;22.32;100.00
48792;BME280;34587;48.816;9.420;2023-07-29T11:03:09;98273.56;;;23.40;93.62
48792;BME280;34587;48.816;9.420;2023-07-29T11:05:51;98263.53;;;26.84;75.10
48792;BME280;34587;48.816;9.420;2023-07-29T11:11:07;98263.06;;;28.46;69.71
48792;BME280;34587;48.816;9.420;2023-07-29T11:13:34;98255.00;;;29.00;63.23
48792;BME280;34587;48.816;9.420;2023-07-29T11:16:00;98264.34;;;28.60;62.43
48792;BME280;34587;48.816;9.420;2023-07-29T11:18:31;98267.44;;;28.02;62.92
48792;BME280;34587;48.816;9.420;2023-07-29T11:20:57;98267.16;;;30.05;56.47
48792;BME280;34587;48.816;9.420;2023-07-29T11:23:35;98272.72;;;28.29;63.38
48792;BME280;34587;48.816;9.420;2023-07-29T11:26:02;98260.28;;;28.02;65.52
48792;BME280;34587;48.816;9.420;2023-07-29T11:28:28;98261.69;;;28.24;64.84
48792;BME280;34587;48.816;9.420;2023-07-29T11:30:57;98261.56;;;27.80;65.05
48792;BME280;34587;48.816;9.420;2023-07-29T11:33:25;98260.72;;;29.65;57.76
48792;BME280;34587;48.816;9.420;2023-07-29T11:35:53;98275.81;;;26.95;66.46
48792;BME280;34587;48.816;9.420;2023-07-29T11:38:19;98266.63;;;26.31;69.60
48792;BME280;34587;48.816;9.420;2023-07-29T11:41:00;98251.91;;;27.97;60.48
48792;BME280;34587;48.816;9.420;2023-07-29T11:43:26;98247.91;;;30.76;52.95
48792;BME280;34587;48.816;9.420;2023-07-29T11:45:52;98256.22;;;30.57;52.24
48792;BME280;34587;48.816;9.420;2023-07-29T11:48:18;98261.59;;;30.73;52.47
48792;BME280;34587;48.816;9.420;2023-07-29T11:50:44;98257.06;;;27.44;58.81
48792;BME280;34587;48.816;9.420;2023-07-29T11:53:17;98244.63;;;26.87;63.80
48792;BME280;34587;48.816;9.420;2023-07-29T11:55:42;98247.53;;;28.41;58.52
48792;BME280;34587;48.816;9.420;2023-07-29T11:58:07;98238.69;;;29.37;54.99
48792;BME280;34587;48.816;9.420;2023-07-29T12:00:33;98236.31;;;28.20;58.76
48792;BME280;34587;48.816;9.420;2023-07-29T12:02:59;98238.84;;;27.49;59.16
48792;BME280;34587;48.816;9.420;2023-07-29T12:05:25;98246.31;;;27.35;59.09
48792;BME280;34587;48.816;9.420;2023-07-29T12:07:50;98232.72;;;27.76;59.84
48792;BME280;34587;48.816;9.420;2023-07-29T12:10:16;98227.88;;;28.42;55.78
48792;BME280;34587;48.816;9.420;2023-07-29T12:12:46;98234.97;;;26.86;61.93
48792;BME280;34587;48.816;9.420;2023-07-29T12:15:12;98232.84;;;27.09;61.17
48792;BME280;34587;48.816;9.420;2023-07-29T12:17:41;98229.66;;;26.86;62.36
48792;BME280;34587;48.816;9.420;2023-07-29T12:20:09;98221.09;;;27.39;59.28
48792;BME280;34587;48.816;9.420;2023-07-29T12:22:35;98208.63;;;27.67;57.45
48792;BME280;34587;48.816;9.420;2023-07-29T12:25:00;98217.78;;;27.28;60.15
48792;BME280;34587;48.816;9.420;2023-07-29T12:27:26;98212.44;;;27.37;58.17
48792;BME280;34587;48.816;9.420;2023-07-29T12:29:52;98215.06;;;27.65;56.63
48792;BME280;34587;48.816;9.420;2023-07-29T12:32:18;98222.94;;;26.82;58.89
48792;BME280;34587;48.816;9.420;2023-07-29T12:34:44;98203.50;;;26.72;60.99
48792;BME280;34587;48.816;9.420;2023-07-29T12:37:09;98204.22;;;27.49;58.30
48792;BME280;34587;48.816;9.420;2023-07-29T12:39:39;98204.13;;;27.13;58.64
48792;BME280;34587;48.816;9.420;2023-07-29T12:42:06;98205.78;;;27.69;55.95
48792;BME280;34587;48.816;9.420;2023-07-29T12:44:33;98209.34;;;28.23;55.42
48792;BME280;34587;48.816;9.420;2023-07-29T12:47:00;98202.81;;;28.17;53.12
48792;BME280;34587;48.816;9.420;2023-07-29T12:49:26;98205.25;;;27.65;55.06
48792;BME280;34587;48.816;9.420;2023-07-29T12:51:53;98209.44;;;28.13;53.70
48792;BME280;34587;48.816;9.420;2023-07-29T12:54:18;98201.13;;;27.99;52.82
48792;BME280;34587;48.816;9.420;2023-07-29T12:56:43;98205.31;;;27.56;53.38
48792;BME280;34587;48.816;9.420;2023-07-29T12:59:09;98201.84;;;27.28;54.22
48792;BME280;34587;48.816;9.420;2023-07-29T13:01:34;98207.50;;;27.42;51.41
48792;BME280;34587;48.816;9.420;2023-07-29T13:03:59;98194.75;;;27.36;51.46
48792;BME280;34587;48.816;9.420;2023-07-29T13:06:25;98201.47;;;27.13;53.30
48792;BME280;34587;48.816;9.420;2023-07-29T13:08:50;98201.38;;;26.85;48.88
48792;BME280;34587;48.816;9.420;2023-07-29T13:11:16;98205.81;;;27.14;48.38
48792;BME280;34587;48.816;9.420;2023-07-29T13:13:41;98194.38;;;27.86;48.14
48792;BME280;34587;48.816;9.420;2023-07-29T13:16:07;98194.38;;;27.31;48.09
48792;BME280;34587;48.816;9.420;2023-07-29T13:18:32;98193.88;;;27.73;48.36
48792;BME280;34587;48.816;9.420;2023-07-29T13:20:58;98190.75;;;27.32;48.54
48792;BME280;34587;48.816;9.420;2023-07-29T13:23:25;98191.72;;;27.86;46.90
48792;BME280;34587;48.816;9.420;2023-07-29T13:25:50;98189.94;;;27.50;47.83
48792;BME280;34587;48.816;9.420;2023-07-29T13:28:16;98197.13;;;27.67;49.12
48792;BME280;34587;48.816;9.420;2023-07-29T13:30:41;98198.44;;;26.88;49.27
48792;BME280;34587;48.816;9.420;2023-07-29T13:33:07;98196.59;;;26.99;48.60
48792;BME280;34587;48.816;9.420;2023-07-29T13:35:33;98202.97;;;26.39;49.08
48792;BME280;34587;48.816;9.420;2023-07-29T13:37:58;98198.59;;;26.77;49.85
48792;BME280;34587;48.816;9.420;2023-07-29T13:40:24;98203.13;;;26.67;48.59
48792;BME280;34587;48.816;9.420;2023-07-29T13:42:49;98193.00;;;26.80;49.80
48792;BME280;34587;48.816;9.420;2023-07-29T13:45:14;98206.19;;;26.62;49.79
48792;BME280;34587;48.816;9.420;2023-07-29T13:47:40;98203.16;;;26.48;51.25
48792;BME280;34587;48.816;9.420;2023-07-29T13:50:06;98206.78;;;26.27;51.25
48792;BME280;34587;48.816;9.420;2023-07-29T13:52:33;98193.66;;;26.16;52.17
48792;BME280;34587;48.816;9.420;2023-07-29T13:54:58;98190.84;;;26.47;51.83
48792;BME280;34587;48.816;9.420;2023-07-29T13:57:23;98191.50;;;26.68;51.13
48792;BME280;34587;48.816;9.420;2023-07-29T13:59:49;98199.41;;;26.87;50.59
48792;BME280;34587;48.816;9.420;2023-07-29T14:02:14;98187.03;;;27.06;52.28
48792;BME280;34587;48.816;9.420;2023-07-29T14:04:39;98197.50;;;26.80;50.73
48792;BME280;34587;48.816;9.420;2023-07-29T14:07:04;98202.03;;;26.60;50.80
48792;BME280;34587;48.816;9.420;2023-07-29T14:09:30;98201.13;;;26.88;51.76
48792;BME280;34587;48.816;9.420;2023-07-29T14:11:55;98199.09;;;27.00;50.24
48792;BME280;34587;48.816;9.420;2023-07-29T14:14:20;98195.38;;;26.83;50.21
48792;BME280;34587;48.816;9.420;2023-07-29T14:16:46;98195.88;;;26.97;50.96
48792;BME280;34587;48.816;9.420;2023-07-29T14:19:12;98198.75;;;26.76;51.91
48792;BME280;34587;48.816;9.420;2023-07-29T14:21:37;98198.78;;;26.66;52.56
48792;BME280;34587;48.816;9.420;2023-07-29T14:24:02;98205.09;;;26.65;50.88
48792;BME280;34587;48.816;9.420;2023-07-29T14:26:28;98208.19;;;26.12;50.89
48792;BME280;34587;48.816;9.420;2023-07-29T14:28:53;98212.66;;;26.11;52.11
48792;BME280;34587;48.816;9.420;2023-07-29T14:31:19;98212.38;;;26.44;51.42
48792;BME280;34587;48.816;9.420;2023-07-29T14:33:44;98202.19;;;26.96;49.47
48792;BME280;34587;48.816;9.420;2023-07-29T14:36:09;98200.22;;;26.98;50.15
48792;BME280;34587;48.816;9.420;2023-07-29T14:38:35;98202.00;;;26.40;51.00
48792;BME280;34587;48.816;9.420;2023-07-29T14:41:01;98195.72;;;26.03;52.14
48792;BME280;34587;48.816;9.420;2023-07-29T14:43:26;98195.41;;;25.86;52.28
48792;BME280;34587;48.816;9.420;2023-07-29T14:45:51;98195.00;;;26.01;52.14
48792;BME280;34587;48.816;9.420;2023-07-29T14:48:17;98191.66;;;25.99;53.49
48792;BME280;34587;48.816;9.420;2023-07-29T14:50:42;98189.84;;;25.99;53.41
48792;BME280;34587;48.816;9.420;2023-07-29T14:53:09;98192.16;;;25.54;53.65
48792;BME280;34587;48.816;9.420;2023-07-29T14:55:34;98186.28;;;25.60;53.67
48792;BME280;34587;48.816;9.420;2023-07-29T14:58:00;98184.56;;;25.40;54.22
48792;BME280;34587;48.816;9.420;2023-07-29T15:00:25;98186.13;;;25.61;54.49
48792;BME280;34587;48.816;9.420;2023-07-29T15:02:50;98183.75;;;25.49;54.61
48792;BME280;34587;48.816;9.420;2023-07-29T15:05:16;98191.34;;;25.63;55.09
48792;BME280;34587;48.816;9.420;2023-07-29T15:07:41;98187.97;;;25.61;54.78
48792;BME280;34587;48.816;9.420;2023-07-29T15:10:07;98187.19;;;25.80;53.86
48792;BME280;34587;48.816;9.420;2023-07-29T15:12:32;98187.81;;;25.62;54.40
48792;BME280;34587;48.816;9.420;2023-07-29T15:14:57;98192.41;;;25.51;55.19
48792;BME280;34587;48.816;9.420;2023-07-29T15:17:23;98196.63;;;25.53;55.60
48792;BME280;34587;48.816;9.420;2023-07-29T15:19:48;98199.13;;;25.55;55.81
48792;BME280;34587;48.816;9.420;2023-07-29T15:22:15;98195.22;;;25.59;54.58
48792;BME280;34587;48.816;9.420;2023-07-29T15:24:41;98195.56;;;26.33;54.16
48792;BME280;34587;48.816;9.420;2023-07-29T15:27:08;98192.44;;;26.77;52.92
48792;BME280;34587;48.816;9.420;2023-07-29T15:29:34;98195.31;;;26.56;52.31
48792;BME280;34587;48.816;9.420;2023-07-29T15:31:59;98202.88;;;26.51;52.49
48792;BME280;34587;48.816;9.420;2023-07-29T15:34:24;98202.97;;;26.69;52.07
48792;BME280;34587;48.816;9.420;2023-07-29T15:36:50;98188.03;;;26.48;52.06
48792;BME280;34587;48.816;9.420;2023-07-29T15:39:16;98186.44;;;26.84;51.96
48792;BME280;34587;48.816;9.420;2023-07-29T15:41:41;98187.09;;;26.86;52.45
48792;BME280;34587;48.816;9.420;2023-07-29T15:44:06;98182.84;;;26.66;52.99
48792;BME280;34587;48.816;9.420;2023-07-29T15:46:32;98193.78;;;27.10;51.37
48792;BME280;34587;48.816;9.420;2023-07-29T15:48:57;98186.16;;;27.25;50.56
48792;BME280;34587;48.816;9.420;2023-07-29T15:51:25;98186.06;;;26.40;52.08
48792;BME280;34587;48.816;9.420;2023-07-29T15:53:50;98192.91;;;26.62;51.84
48792;BME280;34587;48.816;9.420;2023-07-29T15:56:16;98198.78;;;26.66;52.01
48792;BME280;34587;48.816;9.420;2023-07-29T15:58:41;98194.56;;;27.20;51.26
48792;BME280;34587;48.816;9.420;2023-07-29T16:01:06;98192.63;;;27.12;51.69
48792;BME280;34587;48.816;9.420;2023-07-29T16:03:31;98199.16;;;26.81;52.99
48792;BME280;34587;48.816;9.420;2023-07-29T16:05:57;98199.78;;;26.55;54.25
48792;BME280;34587;48.816;9.420;2023-07-29T16:08:22;98199.06;;;26.24;53.22
48792;BME280;34587;48.816;9.420;2023-07-29T16:10:47;98196.72;;;26.11;53.40
48792;BME280;34587;48.816;9.420;2023-07-29T16:13:13;98191.09;;;26.05;52.09
48792;BME280;34587;48.816;9.420;2023-07-29T16:15:42;98189.69;;;26.01;52.36
48792;BME280;34587;48.816;9.420;2023-07-29T16:18:08;98187.75;;;25.83;53.01
48792;BME280;34587;48.816;9.420;2023-07-29T16:20:33;98186.63;;;25.96;52.52
48792;BME280;34587;48.816;9.420;2023-07-29T16:22:58;98186.56;;;25.67;53.30
48792;BME280;34587;48.816;9.420;2023-07-29T16:25:23;98180.84;;;25.71;54.18
48792;BME280;34587;48.816;9.420;2023-07-29T16:27:49;98183.13;;;26.14;54.28
48792;BME280;34587;48.816;9.420;2023-07-29T16:30:14;98180.34;;;26.35;52.51
48792;BME280;34587;48.816;9.420;2023-07-29T16:32:39;98170.72;;;26.91;52.43
48792;BME280;34587;48.816;9.420;2023-07-29T16:35:05;98173.38;;;26.91;51.16
48792;BME280;34587;48.816;9.420;2023-07-29T16:37:31;98186.56;;;26.73;50.79
48792;BME280;34587;48.816;9.420;2023-07-29T16:39:56;98188.78;;;26.87;51.58
48792;BME280;34587;48.816;9.420;2023-07-29T16:42:21;98179.38;;;26.56;52.06
48792;BME280;34587;48.816;9.420;2023-07-29T16:44:46;98182.16;;;26.06;53.19
48792;BME280;34587;48.816;9.420;2023-07-29T16:47:12;98180.47;;;25.85;53.69
48792;BME280;34587;48.816;9.420;2023-07-29T16:49:37;98177.22;;;25.72;53.92
48792;BME280;34587;48.816;9.420;2023-07-29T16:52:03;98177.25;;;25.92;54.01
48792;BME280;34587;48.816;9.420;2023-07-29T16:54:28;98172.94;;;26.49;53.45
48792;BME280;34587;48.816;9.420;2023-07-29T16:56:53;98169.00;;;26.33;53.04
48792;BME280;34587;48.816;9.420;2023-07-29T16:59:19;98167.09;;;26.06;54.52
48792;BME280;34587;48.816;9.420;2023-07-29T17:01:44;98174.91;;;25.88;55.39
48792;BME280;34587;48.816;9.420;2023-07-29T17:04:09;98161.22;;;25.93;55.35
48792;BME280;34587;48.816;9.420;2023-07-29T17:06:35;98160.91;;;25.86;55.47
48792;BME280;34587;48.816;9.420;2023-07-29T17:09:00;98164.47;;;25.56;54.62
48792;BME280;34587;48.816;9.420;2023-07-29T17:11:25;98156.38;;;25.38;55.07